createdAt,value
2023-02-11T00:02:01.131Z,5.60
2023-02-11T00:04:28.080Z,5.60
2023-02-11T00:06:55.415Z,5.60
2023-02-11T00:09:22.318Z,5.60
2023-02-11T00:11:49.285Z,5.60
2023-02-11T00:14:16.163Z,5.60
2023-02-11T00:16:43.251Z,5.60
2023-02-11T00:19:10.131Z,5.70
2023-02-11T00:21:37.078Z,5.70
2023-02-11T00:24:04.563Z,5.70
2023-02-11T00:26:33.961Z,5.70
2023-02-11T00:29:01.488Z,5.70
2023-02-11T00:31:29.011Z,5.80
2023-02-11T00:33:55.999Z,5.80
2023-02-11T00:36:26.074Z,5.80
2023-02-11T00:38:54.330Z,5.80
2023-02-11T00:41:21.880Z,5.80
2023-02-11T00:43:49.408Z,5.80
2023-02-11T00:46:20.594Z,5.80
2023-02-11T00:48:47.661Z,5.90
2023-02-11T00:51:14.836Z,5.80
2023-02-11T00:53:41.753Z,5.90
2023-02-11T00:56:08.817Z,5.90
2023-02-11T00:58:36.560Z,5.90
2023-02-11T01:01:03.969Z,5.80
2023-02-11T01:03:30.941Z,5.80
2023-02-11T01:05:57.798Z,5.80
2023-02-11T01:08:24.744Z,5.80
2023-02-11T01:11:17.185Z,5.80
2023-02-11T01:13:45.987Z,5.80
2023-02-11T01:16:13.252Z,5.80
2023-02-11T01:18:41.962Z,5.70
2023-02-11T01:21:10.629Z,5.80
2023-02-11T01:23:37.436Z,5.70
2023-02-11T01:26:04.855Z,5.70
2023-02-11T01:28:31.896Z,5.80
2023-02-11T01:31:01.597Z,5.70
2023-02-11T01:33:28.985Z,5.70
2023-02-11T01:35:56.291Z,5.80
2023-02-11T01:38:25.870Z,5.80
2023-02-11T01:40:56.540Z,5.80
2023-02-11T01:43:25.892Z,5.80
2023-02-11T01:45:59.949Z,5.80
2023-02-11T01:48:32.926Z,5.80
2023-02-11T01:51:08.324Z,5.80
2023-02-11T01:53:56.451Z,5.80
2023-02-11T01:56:44.532Z,5.80
2023-02-11T01:59:27.342Z,5.80
2023-02-11T02:02:00.748Z,5.80
2023-02-11T02:04:33.288Z,5.80
2023-02-11T02:07:11.126Z,5.80
2023-02-11T02:09:45.566Z,5.80
2023-02-11T02:12:12.469Z,5.80
2023-02-11T02:14:41.080Z,5.80
2023-02-11T02:17:16.248Z,5.80
2023-02-11T02:20:07.616Z,5.70
2023-02-11T02:23:01.647Z,5.70
2023-02-11T02:25:56.792Z,5.70
2023-02-11T02:29:05.190Z,5.70
2023-02-11T02:32:16.248Z,5.70
2023-02-11T02:35:01.728Z,5.70
2023-02-11T02:37:48.080Z,5.70
2023-02-11T02:40:23.520Z,5.70
2023-02-11T02:42:52.210Z,5.70
2023-02-11T02:45:20.116Z,5.70
2023-02-11T02:47:46.953Z,5.70
2023-02-11T02:50:17.795Z,5.70
2023-02-11T02:53:20.246Z,5.70
2023-02-11T02:56:33.682Z,5.60
2023-02-11T02:59:13.599Z,5.70
2023-02-11T03:01:51.631Z,5.60
2023-02-11T03:04:36.199Z,5.60
2023-02-11T03:07:16.194Z,5.60
2023-02-11T03:09:58.483Z,5.60
2023-02-11T03:12:29.133Z,5.60
2023-02-11T03:14:56.019Z,5.60
2023-02-11T03:17:24.988Z,5.50
2023-02-11T03:19:52.060Z,5.50
2023-02-11T03:22:46.173Z,5.50
2023-02-11T03:25:13.802Z,5.50
2023-02-11T03:28:00.290Z,5.50
2023-02-11T03:30:44.604Z,5.50
2023-02-11T03:33:29.225Z,5.50
2023-02-11T03:36:02.636Z,5.50
2023-02-11T03:38:36.440Z,5.50
2023-02-11T03:41:06.919Z,5.50
2023-02-11T03:43:47.243Z,5.50
2023-02-11T03:46:18.146Z,5.50
2023-02-11T03:48:49.581Z,5.50
2023-02-11T03:51:17.034Z,5.40
2023-02-11T03:53:46.589Z,5.50
2023-02-11T03:56:19.633Z,5.50
2023-02-11T03:58:47.810Z,5.50
2023-02-11T04:01:15.154Z,5.50
2023-02-11T04:03:42.302Z,5.40
2023-02-11T04:06:09.228Z,5.40
2023-02-11T04:08:36.161Z,5.40
2023-02-11T04:11:03.132Z,5.40
2023-02-11T04:13:30.205Z,5.40
2023-02-11T04:15:57.275Z,5.40
2023-02-11T04:18:24.238Z,5.40
2023-02-11T04:20:51.407Z,5.40
2023-02-11T04:23:18.330Z,5.40
2023-02-11T04:25:45.350Z,5.40
2023-02-11T04:28:12.355Z,5.40
2023-02-11T04:30:39.439Z,5.40
2023-02-11T04:33:06.315Z,5.40
2023-02-11T04:35:33.335Z,5.40
2023-02-11T04:38:00.196Z,5.50
2023-02-11T04:40:27.146Z,5.40
2023-02-11T04:42:53.964Z,5.50
2023-02-11T04:45:20.873Z,5.50
2023-02-11T04:47:47.716Z,5.50
2023-02-11T04:50:14.738Z,5.50
2023-02-11T04:52:41.676Z,5.40
2023-02-11T04:55:08.476Z,5.50
2023-02-11T04:57:35.327Z,5.40
2023-02-11T05:00:02.277Z,5.50
2023-02-11T05:02:29.169Z,5.50
2023-02-11T05:04:57.587Z,5.50
2023-02-11T05:07:24.961Z,5.50
2023-02-11T05:09:51.767Z,5.50
2023-02-11T05:12:18.686Z,5.50
2023-02-11T05:14:45.567Z,5.50
2023-02-11T05:17:12.457Z,5.50
2023-02-11T05:19:39.366Z,5.50
2023-02-11T05:22:06.264Z,5.50
2023-02-11T05:24:33.366Z,5.50
2023-02-11T05:27:00.864Z,5.50
2023-02-11T05:29:28.213Z,5.50
2023-02-11T05:31:55.197Z,5.60
2023-02-11T05:34:22.035Z,5.60
2023-02-11T05:36:48.968Z,5.50
2023-02-11T05:39:15.847Z,5.60
2023-02-11T05:41:42.757Z,5.60
2023-02-11T05:44:10.109Z,5.60
2023-02-11T05:46:37.034Z,5.60
2023-02-11T05:49:04.489Z,5.60
2023-02-11T05:51:31.394Z,5.60
2023-02-11T05:53:58.290Z,5.60
2023-02-11T05:56:25.149Z,5.70
2023-02-11T05:58:52.080Z,5.70
2023-02-11T06:01:18.921Z,5.70
2023-02-11T06:03:45.953Z,5.70
2023-02-11T06:06:12.962Z,5.70
2023-02-11T06:08:40.100Z,5.70
2023-02-11T06:11:07.201Z,5.70
2023-02-11T06:13:34.102Z,5.70
2023-02-11T06:16:02.726Z,5.70
2023-02-11T06:18:29.866Z,5.70
2023-02-11T06:20:56.761Z,5.70
2023-02-11T06:23:23.776Z,5.70
2023-02-11T06:25:51.537Z,5.70
2023-02-11T06:28:19.235Z,5.70
2023-02-11T06:30:46.257Z,5.70
2023-02-11T06:33:13.114Z,5.70
2023-02-11T06:35:40.143Z,5.80
2023-02-11T06:38:07.260Z,5.70
2023-02-11T06:40:34.175Z,5.80
2023-02-11T06:43:01.044Z,5.80
2023-02-11T06:45:28.019Z,5.80
2023-02-11T06:47:54.926Z,5.80
2023-02-11T06:50:21.993Z,5.80
2023-02-11T06:52:48.863Z,5.80
2023-02-11T06:55:15.912Z,5.80
2023-02-11T06:57:42.784Z,5.80
2023-02-11T07:00:10.314Z,5.80
2023-02-11T07:02:37.223Z,5.80
2023-02-11T07:05:06.926Z,5.80
2023-02-11T07:07:34.437Z,5.80
2023-02-11T07:10:04.085Z,5.80
2023-02-11T07:12:31.895Z,5.80
2023-02-11T07:14:58.824Z,5.80
2023-02-11T07:17:25.710Z,5.80
2023-02-11T07:19:52.669Z,5.80
2023-02-11T07:22:19.527Z,5.80
2023-02-11T07:24:46.528Z,5.80
2023-02-11T07:27:13.462Z,5.80
2023-02-11T07:29:41.617Z,5.80
2023-02-11T07:32:08.723Z,5.80
2023-02-11T07:34:35.781Z,5.80
2023-02-11T07:37:03.061Z,5.80
2023-02-11T07:39:30.133Z,5.80
2023-02-11T07:41:57.095Z,5.80
2023-02-11T07:44:24.094Z,5.80
2023-02-11T07:46:51.056Z,5.80
2023-02-11T07:49:17.975Z,5.80
2023-02-11T07:51:45.865Z,5.80
2023-02-11T07:54:12.768Z,5.80
2023-02-11T07:56:39.679Z,5.80
2023-02-11T07:59:06.583Z,5.80
2023-02-11T08:01:33.553Z,5.80
2023-02-11T08:04:01.896Z,5.80
2023-02-11T08:06:31.523Z,5.90
2023-02-11T08:09:03.312Z,5.80
2023-02-11T08:11:30.180Z,5.90
2023-02-11T08:13:57.536Z,5.90
2023-02-11T08:16:29.794Z,5.90
2023-02-11T08:18:59.154Z,5.90
2023-02-11T08:21:26.483Z,5.90
2023-02-11T08:23:55.105Z,6.00
2023-02-11T08:26:24.840Z,6.00
2023-02-11T08:28:53.811Z,6.00
2023-02-11T08:31:26.152Z,6.00
2023-02-11T08:33:54.784Z,6.00
2023-02-11T08:36:29.273Z,6.00
2023-02-11T08:39:12.115Z,6.10
2023-02-11T08:41:44.972Z,6.10
2023-02-11T08:44:12.153Z,6.10
2023-02-11T08:46:38.988Z,6.20
2023-02-11T08:49:05.897Z,6.20
2023-02-11T08:51:33.353Z,6.20
2023-02-11T08:54:01.073Z,6.20
2023-02-11T08:56:28.546Z,6.20
2023-02-11T08:58:55.544Z,6.20
2023-02-11T09:01:25.513Z,6.20
2023-02-11T09:03:53.234Z,6.20
2023-02-11T09:06:20.896Z,6.20
2023-02-11T09:08:49.995Z,6.20
2023-02-11T09:11:19.161Z,6.20
2023-02-11T09:13:46.119Z,6.20
2023-02-11T09:16:25.104Z,6.20
2023-02-11T09:18:52.648Z,6.20
2023-02-11T09:21:20.346Z,6.20
2023-02-11T09:23:48.121Z,6.20
2023-02-11T09:26:17.114Z,6.20
2023-02-11T09:28:44.417Z,6.20
2023-02-11T09:31:14.623Z,6.20
2023-02-11T09:33:47.971Z,6.30
2023-02-11T09:36:21.082Z,6.30
2023-02-11T09:38:48.361Z,6.30
2023-02-11T09:41:24.031Z,6.40
2023-02-11T09:43:54.771Z,6.40
2023-02-11T09:46:23.195Z,6.30
2023-02-11T09:48:54.304Z,6.40
2023-02-11T09:51:43.850Z,6.40
2023-02-11T09:54:37.653Z,6.40
2023-02-11T09:57:06.269Z,6.40
2023-02-11T09:59:33.215Z,6.40
2023-02-11T10:02:13.429Z,6.50
2023-02-11T10:04:43.856Z,6.50
2023-02-11T10:07:39.744Z,6.60
2023-02-11T10:10:17.773Z,6.60
2023-02-11T10:12:56.510Z,6.50
2023-02-11T10:15:55.843Z,6.50
2023-02-11T10:18:55.256Z,6.50
2023-02-11T10:21:28.161Z,6.50
2023-02-11T10:23:59.685Z,6.50
2023-02-11T10:26:30.953Z,6.50
2023-02-11T10:29:02.708Z,6.50
2023-02-11T10:31:39.842Z,6.60
2023-02-11T10:34:13.265Z,6.60
2023-02-11T10:36:44.756Z,6.60
2023-02-11T10:39:14.924Z,6.60
2023-02-11T10:41:49.260Z,6.60
2023-02-11T10:44:31.049Z,6.60
2023-02-11T10:47:05.651Z,6.60
2023-02-11T10:49:42.692Z,6.70
2023-02-11T10:52:15.300Z,6.60
2023-02-11T10:54:42.419Z,6.60
2023-02-11T10:57:19.511Z,6.60
2023-02-11T10:59:46.549Z,6.70
2023-02-11T11:02:24.880Z,6.70
2023-02-11T11:04:57.585Z,6.60
2023-02-11T11:07:30.153Z,6.60
2023-02-11T11:10:08.494Z,6.70
2023-02-11T11:12:48.604Z,6.70
2023-02-11T11:15:30.662Z,6.80
2023-02-11T11:18:21.835Z,6.70
2023-02-11T11:21:01.301Z,6.80
2023-02-11T11:23:30.464Z,6.80
2023-02-11T11:26:12.980Z,6.80
2023-02-11T11:28:50.703Z,6.80
2023-02-11T11:31:24.149Z,6.80
2023-02-11T11:33:54.533Z,6.90
2023-02-11T11:36:34.084Z,6.90
2023-02-11T11:39:04.624Z,6.90
2023-02-11T11:41:34.227Z,7.00
2023-02-11T11:44:21.518Z,7.00
2023-02-11T11:46:53.138Z,7.10
2023-02-11T11:49:28.053Z,7.20
2023-02-11T11:52:20.568Z,7.20
2023-02-11T11:54:55.064Z,7.30
2023-02-11T11:57:26.904Z,7.30
2023-02-11T11:59:53.798Z,7.40
2023-02-11T12:02:45.702Z,7.40
2023-02-11T12:05:31.757Z,7.40
2023-02-11T12:08:13.598Z,7.40
2023-02-11T12:10:46.572Z,7.40
2023-02-11T12:13:36.571Z,7.50
2023-02-11T12:16:31.387Z,7.40
2023-02-11T12:19:20.822Z,7.50
2023-02-11T12:22:09.384Z,7.40
2023-02-11T12:24:41.900Z,7.50
2023-02-11T12:27:32.464Z,7.50
2023-02-11T12:30:15.230Z,7.50
2023-02-11T12:32:51.091Z,7.50
2023-02-11T12:35:25.586Z,7.50
2023-02-11T12:38:15.943Z,7.50
2023-02-11T12:41:10.406Z,7.50
2023-02-11T12:43:39.722Z,7.60
2023-02-11T12:46:06.728Z,7.60
2023-02-11T12:48:45.758Z,7.60
2023-02-11T12:51:37.118Z,7.60
2023-02-11T12:54:26.712Z,7.60
2023-02-11T12:57:06.820Z,7.50
2023-02-11T12:59:50.936Z,7.50
2023-02-11T13:02:31.010Z,7.50
2023-02-11T13:05:04.118Z,7.50
2023-02-11T13:07:40.112Z,7.50
2023-02-11T13:10:33.847Z,7.50
2023-02-11T13:13:18.723Z,7.50
2023-02-11T13:15:58.657Z,7.50
2023-02-11T13:19:00.804Z,7.50
2023-02-11T13:22:04.330Z,7.60
2023-02-11T13:24:41.287Z,7.60
2023-02-11T13:27:42.776Z,7.70
2023-02-11T13:30:32.442Z,7.60
2023-02-11T13:33:01.029Z,7.70
2023-02-11T13:35:30.790Z,7.70
2023-02-11T13:38:00.424Z,7.70
2023-02-11T13:40:39.772Z,7.70
2023-02-11T13:43:23.607Z,7.70
2023-02-11T13:45:52.334Z,7.70
2023-02-11T13:48:24.082Z,7.70
2023-02-11T13:50:54.197Z,7.70
2023-02-11T13:53:22.277Z,7.70
2023-02-11T13:55:53.936Z,7.70
2023-02-11T13:58:30.099Z,7.80
2023-02-11T14:00:58.518Z,7.80
2023-02-11T14:03:52.033Z,7.80
2023-02-11T14:07:07.151Z,7.80
2023-02-11T14:09:38.011Z,7.80
2023-02-11T14:12:22.236Z,7.80
2023-02-11T14:15:12.424Z,7.80
2023-02-11T14:17:39.297Z,7.80
2023-02-11T14:20:36.628Z,7.80
2023-02-11T14:23:04.889Z,7.80
2023-02-11T14:25:32.115Z,7.80
2023-02-11T14:28:21.433Z,7.80
2023-02-11T14:31:10.408Z,7.80
2023-02-11T14:33:56.682Z,7.90
2023-02-11T14:36:43.769Z,7.90
2023-02-11T14:39:25.396Z,7.90
2023-02-11T14:41:53.738Z,7.90
2023-02-11T14:44:27.876Z,7.90
2023-02-11T14:46:55.619Z,7.90
2023-02-11T14:49:27.299Z,7.90
2023-02-11T14:52:07.585Z,7.90
2023-02-11T14:54:35.879Z,7.90
2023-02-11T14:57:20.187Z,7.90
2023-02-11T14:59:59.692Z,7.90
2023-02-11T15:02:33.334Z,7.90
2023-02-11T15:05:22.540Z,7.90
2023-02-11T15:07:55.250Z,7.90
2023-02-11T15:10:36.111Z,7.90
2023-02-11T15:13:04.803Z,8.00
2023-02-11T15:15:32.739Z,8.00
2023-02-11T15:18:02.799Z,8.00
2023-02-11T15:20:32.458Z,8.00
2023-02-11T15:23:04.088Z,8.00
2023-02-11T15:25:33.796Z,8.00
2023-02-11T15:28:10.845Z,8.00
2023-02-11T15:30:37.992Z,7.90
2023-02-11T15:33:07.003Z,8.00
2023-02-11T15:35:38.253Z,8.00
2023-02-11T15:38:05.602Z,8.00
2023-02-11T15:40:35.071Z,8.00
2023-02-11T15:43:04.543Z,8.00
2023-02-11T15:45:41.058Z,8.00
2023-02-11T15:48:22.648Z,8.00
2023-02-11T15:50:58.908Z,8.00
2023-02-11T15:53:30.425Z,8.00
2023-02-11T15:56:08.109Z,8.10
2023-02-11T15:58:40.210Z,8.00
2023-02-11T16:01:08.725Z,8.00
2023-02-11T16:03:36.075Z,8.00
2023-02-11T16:06:26.008Z,8.00
2023-02-11T16:09:01.026Z,8.00
2023-02-11T16:11:36.805Z,8.00
2023-02-11T16:14:31.579Z,8.00
2023-02-11T16:17:13.318Z,8.00
2023-02-11T16:19:46.730Z,8.00
2023-02-11T16:22:30.294Z,8.00
2023-02-11T16:25:01.988Z,8.00
2023-02-11T16:27:31.871Z,8.00
2023-02-11T16:29:59.076Z,8.00
2023-02-11T16:32:28.427Z,8.00
2023-02-11T16:34:58.028Z,8.00
2023-02-11T16:37:25.816Z,8.00
2023-02-11T16:39:56.962Z,8.00
2023-02-11T16:42:24.735Z,8.00
2023-02-11T16:44:51.704Z,8.00
2023-02-11T16:47:27.576Z,8.00
2023-02-11T16:49:56.137Z,8.00
2023-02-11T16:52:23.712Z,8.00
2023-02-11T16:54:50.987Z,8.00
2023-02-11T16:57:23.679Z,8.00
2023-02-11T16:59:51.645Z,8.00
2023-02-11T17:02:24.214Z,8.00
2023-02-11T17:04:53.889Z,8.00
2023-02-11T17:07:21.593Z,8.00
2023-02-11T17:09:48.450Z,8.00
2023-02-11T17:12:15.322Z,7.90
2023-02-11T17:14:42.129Z,8.00
2023-02-11T17:17:10.630Z,8.00
2023-02-11T17:19:38.497Z,8.00
2023-02-11T17:22:05.473Z,8.00
2023-02-11T17:24:32.394Z,8.00
2023-02-11T17:26:59.485Z,8.00
2023-02-11T17:29:26.407Z,8.00
2023-02-11T17:31:53.484Z,8.00
2023-02-11T17:34:21.783Z,8.00
2023-02-11T17:36:48.822Z,8.10
2023-02-11T17:39:16.990Z,8.10
2023-02-11T17:41:43.863Z,8.10
2023-02-11T17:44:16.329Z,8.00
2023-02-11T17:46:43.558Z,8.00
2023-02-11T17:49:11.996Z,8.00
2023-02-11T17:51:39.827Z,8.00
2023-02-11T17:54:10.414Z,8.00
2023-02-11T17:56:37.880Z,8.00
2023-02-11T17:59:06.791Z,8.00
2023-02-11T18:01:34.890Z,8.00
2023-02-11T18:04:02.153Z,8.00
2023-02-11T18:06:29.236Z,8.00
2023-02-11T18:08:59.750Z,8.00
2023-02-11T18:11:27.920Z,8.00
2023-02-11T18:13:54.798Z,8.00
2023-02-11T18:16:23.202Z,8.00
2023-02-11T18:18:50.685Z,8.00
2023-02-11T18:21:20.143Z,8.00
2023-02-11T18:23:47.339Z,8.00
2023-02-11T18:26:15.908Z,8.00
2023-02-11T18:28:45.706Z,8.00
2023-02-11T18:31:14.155Z,8.00
2023-02-11T18:33:43.259Z,8.00
2023-02-11T18:36:13.167Z,8.00
2023-02-11T18:38:40.634Z,8.00
2023-02-11T18:41:07.663Z,8.00
2023-02-11T18:43:35.126Z,8.00
2023-02-11T18:46:11.777Z,8.00
2023-02-11T18:48:39.864Z,8.00
2023-02-11T18:51:19.519Z,8.00
2023-02-11T18:53:47.051Z,8.00
2023-02-11T18:56:18.298Z,8.00
2023-02-11T18:58:45.275Z,8.00
2023-02-11T19:01:18.097Z,8.00
2023-02-11T19:03:45.227Z,8.00
2023-02-11T19:06:17.545Z,8.00
2023-02-11T19:08:45.186Z,8.00
2023-02-11T19:11:12.573Z,8.00
2023-02-11T19:13:40.136Z,8.00
2023-02-11T19:16:11.188Z,8.00
2023-02-11T19:18:38.775Z,8.00
2023-02-11T19:21:10.790Z,8.00
2023-02-11T19:23:38.132Z,7.90
2023-02-11T19:26:06.520Z,8.00
2023-02-11T19:28:35.344Z,8.00
2023-02-11T19:31:07.234Z,8.10
2023-02-11T19:33:34.395Z,8.00
2023-02-11T19:36:06.134Z,8.10
2023-02-11T19:38:33.256Z,8.00
2023-02-11T19:41:00.384Z,8.00
2023-02-11T19:43:27.474Z,8.00
2023-02-11T19:45:56.309Z,8.10
2023-02-11T19:48:24.880Z,8.00
2023-02-11T19:50:51.878Z,8.00
2023-02-11T19:53:18.819Z,8.00
2023-02-11T19:55:45.684Z,8.00
2023-02-11T19:58:12.671Z,8.00
2023-02-11T20:00:39.913Z,8.00
2023-02-11T20:03:07.042Z,8.00
2023-02-11T20:05:34.871Z,8.00
2023-02-11T20:08:01.828Z,8.00
2023-02-11T20:10:28.658Z,8.00
2023-02-11T20:12:55.702Z,8.00
2023-02-11T20:15:22.586Z,8.00
2023-02-11T20:17:49.443Z,8.00
2023-02-11T20:20:18.494Z,7.90
2023-02-11T20:22:45.394Z,7.90
2023-02-11T20:25:12.480Z,8.00
2023-02-11T20:27:39.391Z,7.90
2023-02-11T20:30:07.239Z,7.90
2023-02-11T20:32:38.145Z,7.90
2023-02-11T20:35:07.262Z,7.90
2023-02-11T20:37:34.528Z,8.00
2023-02-11T20:40:01.467Z,8.00
2023-02-11T20:42:28.458Z,7.90
2023-02-11T20:44:55.402Z,7.90
2023-02-11T20:47:22.749Z,7.90
2023-02-11T20:49:49.775Z,7.90
2023-02-11T20:52:17.247Z,7.90
2023-02-11T20:54:44.069Z,7.90
2023-02-11T20:57:11.216Z,7.90
2023-02-11T20:59:38.052Z,8.00
2023-02-11T21:02:05.008Z,8.00
2023-02-11T21:04:32.671Z,8.00
2023-02-11T21:07:01.818Z,7.90
2023-02-11T21:09:31.237Z,8.00
2023-02-11T21:11:58.505Z,7.90
2023-02-11T21:14:26.863Z,8.00
2023-02-11T21:16:54.039Z,8.00
2023-02-11T21:19:21.268Z,7.90
2023-02-11T21:21:48.394Z,8.00
2023-02-11T21:24:15.276Z,8.00
2023-02-11T21:26:42.141Z,8.00
2023-02-11T21:29:10.247Z,8.00
2023-02-11T21:31:37.846Z,8.00
2023-02-11T21:34:06.154Z,8.00
2023-02-11T21:36:33.842Z,8.00
2023-02-11T21:39:01.929Z,8.00
2023-02-11T21:41:28.893Z,8.00
2023-02-11T21:43:56.509Z,8.00
2023-02-11T21:46:23.522Z,8.00
2023-02-11T21:48:51.040Z,7.90
2023-02-11T21:51:24.303Z,8.00
2023-02-11T21:53:59.086Z,7.90
2023-02-11T21:56:28.159Z,8.00
2023-02-11T21:58:57.672Z,8.00
2023-02-11T22:01:30.152Z,8.00
2023-02-11T22:03:57.364Z,7.90
2023-02-11T22:06:28.287Z,7.90
2023-02-11T22:08:55.398Z,7.90
2023-02-11T22:11:22.361Z,7.90
2023-02-11T22:13:57.834Z,7.90
2023-02-11T22:16:26.097Z,8.00
2023-02-11T22:18:53.376Z,7.90
2023-02-11T22:21:22.677Z,8.00
2023-02-11T22:23:50.639Z,8.00
2023-02-11T22:26:22.997Z,8.00
2023-02-11T22:28:50.766Z,8.00
2023-02-11T22:31:29.687Z,8.00
2023-02-11T22:33:57.455Z,8.00
2023-02-11T22:36:34.565Z,7.90
2023-02-11T22:39:07.528Z,7.90
2023-02-11T22:41:34.807Z,7.90
2023-02-11T22:44:01.619Z,7.90
2023-02-11T22:46:28.617Z,7.80
2023-02-11T22:48:55.694Z,7.90
2023-02-11T22:51:25.371Z,7.90
2023-02-11T22:53:54.123Z,7.90
2023-02-11T22:56:21.583Z,7.90
2023-02-11T22:58:49.074Z,7.90
2023-02-11T23:01:16.679Z,7.90
2023-02-11T23:03:44.243Z,7.90
2023-02-11T23:06:11.651Z,7.90
2023-02-11T23:08:40.056Z,7.90
2023-02-11T23:11:10.498Z,7.90
2023-02-11T23:13:39.507Z,7.90
2023-02-11T23:16:09.040Z,8.00
2023-02-11T23:18:40.170Z,7.90
2023-02-11T23:21:13.519Z,7.90
2023-02-11T23:23:40.464Z,7.90
2023-02-11T23:26:14.414Z,7.90
2023-02-11T23:28:42.161Z,7.90
2023-02-11T23:31:26.351Z,7.90
2023-02-11T23:33:53.700Z,7.90
2023-02-11T23:36:21.599Z,7.90
2023-02-11T23:38:48.976Z,7.80
2023-02-11T23:41:16.516Z,7.80
2023-02-11T23:43:43.589Z,7.70
2023-02-11T23:46:11.019Z,7.70
2023-02-11T23:48:38.659Z,7.70
2023-02-11T23:51:06.457Z,7.70
2023-02-11T23:53:33.447Z,7.70
2023-02-11T23:56:00.359Z,7.70
2023-02-11T23:58:27.238Z,7.70
